VAM | Vabird-VBD

Virtual Vabird! Aerolínea Virtual de habla hispana, desde 2011




 INFORMACIÓN METAR y TAF
METAR FOR DTTA
ADDS - METARS form results

(2226 UTC 09 May 2021)
Data provider http://aviationweather.gov/metar/data/
 
METAR text: DTTA 092200Z 12010KT 090V150 9999 FEW026 20/12 Q1015
Conditions at: DTTA (TUNIS/CARTHAGE , TN) observed 2200 UTC 09 May 2021
Temperature: 20.0°C (68°F)
Dewpoint: 12.0°C (54°F) [RH = 60%]
Pressure (altimeter): 29.97 inches Hg (1015.0 mb)
Winds: from the ESE (120 degrees) at 12 MPH (10 knots; 5.1 m/s)
Visibility: 6 or more miles (10+ km)
Ceiling: at least 12,000 feet AGL
Clouds: few clouds at 2600 feet AGL
Weather: no significant weather observed at this time

METAR text: DTTA 092130Z 12009KT 070V160 9999 FEW026 20/11 Q1015
Conditions at: DTTA (TUNIS/CARTHAGE , TN) observed 2130 UTC 09 May 2021
Temperature: 20.0°C (68°F)
Dewpoint: 11.0°C (52°F) [RH = 56%]
Pressure (altimeter): 29.97 inches Hg (1015.0 mb)
Winds: from the ESE (120 degrees) at 10 MPH (9 knots; 4.6 m/s)
Visibility: 6 or more miles (10+ km)
Ceiling: at least 12,000 feet AGL
Clouds: few clouds at 2600 feet AGL
Weather: no significant weather observed at this time

Forecast for: DTTA (TUNIS/CARTHAGE , TN)
Text: TAF DTTA 091700Z 0918/1018 12014KT 9999 FEW026
Forecast period: 1800 to 1900 UTC 09 May 2021
Forecast type: FROM: standard forecast or significant change
Winds: from the ESE (120 degrees) at 16 MPH (14 knots; 7.2 m/s)
Visibility: 6 or more miles (10+ km)
Ceiling: at least 12,000 feet AGL
Clouds: few clouds at 2600 feet AGL
Weather: no significant weather forecast for this period
Text: BECMG 0919/0921 16010KT
Forecast period: 1900 UTC 09 May 2021 to 0600 UTC 10 May 2021
Forecast type: BECOMING: Conditions expected to become as follows by 2100 UTC 09 May 2021
Winds: from the SSE (160 degrees) at 12 MPH (10 knots; 5.1 m/s)
Visibility: 6 or more miles (10+ km)
Ceiling: at least 12,000 feet AGL
Clouds: few clouds at 2600 feet AGL
Weather: no significant weather forecast for this period
Text: BECMG 1006/1008 14014KT
Forecast period: 0600 to 1800 UTC 10 May 2021
Forecast type: BECOMING: Conditions expected to become as follows by 0800 UTC 10 May 2021
Winds: from the SE (140 degrees) at 16 MPH (14 knots; 7.2 m/s)
Visibility: 6 or more miles (10+ km)
Ceiling: at least 12,000 feet AGL
Clouds: few clouds at 2600 feet AGL
Weather: no significant weather forecast for this period

 MAPA DE AEROPUERTO

 INFORMACIÓN DE PISTA